createdAt,value
2023-01-03T00:02:24.313Z,11.10
2023-01-03T00:04:51.729Z,11.18
2023-01-03T00:07:33.856Z,11.12
2023-01-03T00:10:01.890Z,11.17
2023-01-03T00:12:31.278Z,11.17
2023-01-03T00:14:59.478Z,11.08
2023-01-03T00:17:26.891Z,11.08
2023-01-03T00:19:54.374Z,11.12
2023-01-03T00:22:23.252Z,11.08
2023-01-03T00:24:50.679Z,11.10
2023-01-03T00:27:18.271Z,11.16
2023-01-03T00:29:45.653Z,11.06
2023-01-03T00:32:13.674Z,10.91
2023-01-03T00:34:41.036Z,10.77
2023-01-03T00:37:08.410Z,10.78
2023-01-03T00:39:37.145Z,10.76
2023-01-03T00:42:04.565Z,10.44
2023-01-03T00:44:32.059Z,10.39
2023-01-03T00:46:59.582Z,10.40
2023-01-03T00:49:26.971Z,10.27
2023-01-03T00:51:54.644Z,10.25
2023-01-03T00:54:23.288Z,10.23
2023-01-03T00:56:52.895Z,10.11
2023-01-03T00:59:22.664Z,10.17
2023-01-03T01:01:51.908Z,10.04
2023-01-03T01:04:21.891Z,10.11
2023-01-03T01:06:51.625Z,10.00
2023-01-03T01:09:21.201Z,10.17
2023-01-03T01:11:49.073Z,10.02
2023-01-03T01:14:22.658Z,10.11
2023-01-03T01:16:52.101Z,10.22
2023-01-03T01:19:21.358Z,10.05
2023-01-03T01:21:48.862Z,10.00
2023-01-03T01:24:18.167Z,10.07
2023-01-03T01:26:46.170Z,9.88
2023-01-03T01:29:15.071Z,9.92
2023-01-03T01:31:46.305Z,10.08
2023-01-03T01:34:13.975Z,9.97
2023-01-03T01:36:43.332Z,10.03
2023-01-03T01:39:14.322Z,10.04
2023-01-03T01:41:59.956Z,9.98
2023-01-03T01:44:53.092Z,10.02
2023-01-03T01:47:28.451Z,10.04
2023-01-03T01:50:01.694Z,9.94
2023-01-03T01:52:31.146Z,9.93
2023-01-03T01:54:59.859Z,10.03
2023-01-03T01:57:27.536Z,10.11
2023-01-03T01:59:54.886Z,10.18
2023-01-03T02:02:24.875Z,10.13
2023-01-03T02:04:55.942Z,10.12
2023-01-03T02:07:24.482Z,10.17
2023-01-03T02:09:56.484Z,10.27
2023-01-03T02:12:49.476Z,10.33
2023-01-03T02:15:30.070Z,10.10
2023-01-03T02:18:11.031Z,10.15
2023-01-03T02:20:58.693Z,10.04
2023-01-03T02:23:45.033Z,10.14
2023-01-03T02:26:53.619Z,9.90
2023-01-03T02:30:19.927Z,9.95
2023-01-03T02:32:53.918Z,9.83
2023-01-03T02:35:30.211Z,9.80
2023-01-03T02:38:03.157Z,9.84
2023-01-03T02:40:38.076Z,9.70
2023-01-03T02:43:09.342Z,9.74
2023-01-03T02:45:53.733Z,9.63
2023-01-03T02:48:31.287Z,9.73
2023-01-03T02:51:03.041Z,9.77
2023-01-03T02:53:34.696Z,9.79
2023-01-03T02:56:07.137Z,9.75
2023-01-03T02:58:37.804Z,9.75
2023-01-03T03:01:08.273Z,9.73
2023-01-03T03:03:39.799Z,9.78
2023-01-03T03:06:13.522Z,9.93
2023-01-03T03:08:40.941Z,9.91
2023-01-03T03:11:25.909Z,9.87
2023-01-03T03:13:57.845Z,9.92
2023-01-03T03:16:42.371Z,9.80
2023-01-03T03:19:35.316Z,9.97
2023-01-03T03:22:29.188Z,9.90
2023-01-03T03:25:00.372Z,9.97
2023-01-03T03:27:48.506Z,10.10
2023-01-03T03:30:18.843Z,9.95
2023-01-03T03:32:50.071Z,10.00
2023-01-03T03:35:24.341Z,9.95
2023-01-03T03:37:56.635Z,9.93
2023-01-03T03:40:44.066Z,9.97
2023-01-03T03:43:36.448Z,9.88
2023-01-03T03:46:09.260Z,9.82
2023-01-03T03:49:01.073Z,9.76
2023-01-03T03:51:33.639Z,9.85
2023-01-03T03:54:05.194Z,9.91
2023-01-03T03:56:36.930Z,9.78
2023-01-03T03:59:08.792Z,9.83
2023-01-03T04:01:39.957Z,9.72
2023-01-03T04:04:13.150Z,9.87
2023-01-03T04:06:45.370Z,9.87
2023-01-03T04:09:13.043Z,9.87
2023-01-03T04:11:41.176Z,9.76
2023-01-03T04:14:08.538Z,9.93
2023-01-03T04:16:37.552Z,9.75
2023-01-03T04:19:05.192Z,9.81
2023-01-03T04:21:33.505Z,9.80
2023-01-03T04:24:02.212Z,9.76
2023-01-03T04:26:29.632Z,9.76
2023-01-03T04:28:57.055Z,9.87
2023-01-03T04:31:24.561Z,9.87
2023-01-03T04:33:53.831Z,9.89
2023-01-03T04:36:21.370Z,9.71
2023-01-03T04:38:49.032Z,9.83
2023-01-03T04:41:17.841Z,9.96
2023-01-03T04:44:02.504Z,9.74
2023-01-03T04:46:30.911Z,9.79
2023-01-03T04:48:58.383Z,9.82
2023-01-03T04:51:25.982Z,9.87
2023-01-03T04:53:53.409Z,9.75
2023-01-03T04:56:26.606Z,9.77
2023-01-03T04:58:54.022Z,9.77
2023-01-03T05:01:21.604Z,9.74
2023-01-03T05:03:49.167Z,9.86
2023-01-03T05:06:17.297Z,9.93
2023-01-03T05:08:45.641Z,9.90
2023-01-03T05:11:13.443Z,10.06
2023-01-03T05:13:42.141Z,9.92
2023-01-03T05:19:03.166Z,9.98
2023-01-03T05:21:48.317Z,9.89
2023-01-03T05:24:33.759Z,10.00
2023-01-03T05:27:03.954Z,9.91
2023-01-03T05:29:36.024Z,9.94
2023-01-03T05:32:03.548Z,9.89
2023-01-03T05:34:30.978Z,9.87
2023-01-03T05:36:58.414Z,9.83
2023-01-03T05:39:25.810Z,9.93
2023-01-03T05:42:02.388Z,9.91
2023-01-03T05:44:31.322Z,9.92
2023-01-03T05:47:01.132Z,9.82
2023-01-03T05:49:28.773Z,9.84
2023-01-03T05:51:56.155Z,9.69
2023-01-03T05:54:23.536Z,9.75
2023-01-03T05:56:51.466Z,9.86
2023-01-03T05:59:19.117Z,9.77
2023-01-03T06:01:46.586Z,9.68
2023-01-03T06:04:15.433Z,9.83
2023-01-03T06:06:42.870Z,9.86
2023-01-03T06:09:10.285Z,9.79
2023-01-03T06:11:37.690Z,9.87
2023-01-03T06:14:05.047Z,9.70
2023-01-03T06:16:50.176Z,9.72
2023-01-03T06:19:18.917Z,9.81
2023-01-03T06:21:46.356Z,9.76
2023-01-03T06:24:13.726Z,9.77
2023-01-03T06:26:41.158Z,9.78
2023-01-03T06:29:09.476Z,9.92
2023-01-03T06:31:37.182Z,9.72
2023-01-03T06:34:04.879Z,9.79
2023-01-03T06:36:34.310Z,9.85
2023-01-03T06:39:01.902Z,9.80
2023-01-03T06:41:29.260Z,9.92
2023-01-03T06:43:56.695Z,9.90
2023-01-03T06:46:41.723Z,9.83
2023-01-03T06:49:33.562Z,9.80
2023-01-03T06:52:21.217Z,9.79
2023-01-03T06:54:48.844Z,9.77
2023-01-03T06:57:26.329Z,9.72
2023-01-03T06:59:55.225Z,9.69
2023-01-03T07:02:22.773Z,9.80
2023-01-03T07:04:50.364Z,9.80
2023-01-03T07:07:19.127Z,9.70
2023-01-03T07:09:46.482Z,9.74
2023-01-03T07:15:23.350Z,9.68
2023-01-03T07:17:50.903Z,9.58
2023-01-03T07:20:18.286Z,9.53
2023-01-03T07:22:46.983Z,9.69
2023-01-03T07:25:14.428Z,9.64
2023-01-03T07:27:41.781Z,9.55
2023-01-03T07:30:10.550Z,9.64
2023-01-03T07:32:37.999Z,9.43
2023-01-03T07:35:06.372Z,9.40
2023-01-03T07:37:33.778Z,9.52
2023-01-03T07:40:02.496Z,9.23
2023-01-03T07:42:55.669Z,9.26
2023-01-03T07:45:23.058Z,9.26
2023-01-03T07:47:50.450Z,9.40
2023-01-03T07:50:18.069Z,9.26
2023-01-03T07:52:45.453Z,9.22
2023-01-03T07:55:14.252Z,9.12
2023-01-03T07:57:41.639Z,9.21
2023-01-03T08:00:10.277Z,9.28
2023-01-03T08:02:37.778Z,9.24
2023-01-03T08:05:05.845Z,9.26
2023-01-03T08:07:33.205Z,9.21
2023-01-03T08:10:17.849Z,9.03
2023-01-03T08:13:04.532Z,9.16
2023-01-03T08:15:32.010Z,9.28
2023-01-03T08:17:59.378Z,9.24
2023-01-03T08:20:26.871Z,9.34
2023-01-03T08:22:54.320Z,9.30
2023-01-03T08:25:21.894Z,9.43
2023-01-03T08:27:50.632Z,9.38
2023-01-03T08:30:18.324Z,9.54
2023-01-03T08:32:45.889Z,9.31
2023-01-03T08:35:13.391Z,9.48
2023-01-03T08:37:40.797Z,9.45
2023-01-03T08:40:11.142Z,9.51
2023-01-03T08:42:39.069Z,9.34
2023-01-03T08:45:12.490Z,9.46
2023-01-03T08:47:40.489Z,9.51
2023-01-03T08:50:09.459Z,9.59
2023-01-03T08:52:36.873Z,9.63
2023-01-03T08:55:05.197Z,9.60
2023-01-03T08:57:33.077Z,9.85
2023-01-03T09:00:00.456Z,9.88
2023-01-03T09:02:29.526Z,9.98
2023-01-03T09:04:57.054Z,9.69
2023-01-03T09:07:24.417Z,9.70
2023-01-03T09:09:51.789Z,9.94
2023-01-03T09:12:19.151Z,9.92
2023-01-03T09:14:46.546Z,9.83
2023-01-03T09:17:13.971Z,9.82
2023-01-03T09:19:43.522Z,9.88
2023-01-03T09:22:10.940Z,10.04
2023-01-03T09:24:38.298Z,10.15
2023-01-03T09:27:05.717Z,10.15
2023-01-03T09:29:33.106Z,10.19
2023-01-03T09:32:03.260Z,10.27
2023-01-03T09:34:30.759Z,9.99
2023-01-03T09:36:59.444Z,10.15
2023-01-03T09:39:26.859Z,10.05
2023-01-03T09:42:08.257Z,10.19
2023-01-03T09:44:35.727Z,10.37
2023-01-03T09:47:04.131Z,10.39
2023-01-03T09:49:31.878Z,10.41
2023-01-03T09:52:18.106Z,10.47
2023-01-03T09:55:03.823Z,10.45
2023-01-03T09:57:52.044Z,10.40
2023-01-03T10:00:46.229Z,10.41
2023-01-03T10:03:50.928Z,10.22
2023-01-03T10:06:32.612Z,10.21
2023-01-03T10:09:14.294Z,10.11
2023-01-03T10:11:51.965Z,10.33
2023-01-03T10:14:37.544Z,10.43
2023-01-03T10:17:14.529Z,10.56
2023-01-03T10:20:10.408Z,10.52
2023-01-03T10:22:39.943Z,10.66
2023-01-03T10:25:13.692Z,10.80
2023-01-03T10:27:46.223Z,10.91
2023-01-03T10:30:17.932Z,10.97
2023-01-03T10:33:06.915Z,11.01
2023-01-03T10:35:36.391Z,10.77
2023-01-03T10:38:04.417Z,10.71
2023-01-03T10:40:35.665Z,10.77
2023-01-03T10:43:11.713Z,10.83
2023-01-03T10:45:52.555Z,10.94
2023-01-03T10:48:20.156Z,10.79
2023-01-03T10:50:47.584Z,10.83
2023-01-03T10:53:18.611Z,10.76
2023-01-03T10:55:50.095Z,10.79
2023-01-03T10:58:23.056Z,10.71
2023-01-03T11:00:50.539Z,10.87
2023-01-03T11:03:20.456Z,10.96
2023-01-03T11:05:51.135Z,11.14
2023-01-03T11:08:22.403Z,11.43
2023-01-03T11:10:54.654Z,11.23
2023-01-03T11:13:30.436Z,10.95
2023-01-03T11:15:59.606Z,11.05
2023-01-03T11:18:28.290Z,10.97
2023-01-03T11:21:07.103Z,11.02
2023-01-03T11:23:54.421Z,10.84
2023-01-03T11:26:33.485Z,10.94
2023-01-03T11:29:18.409Z,10.74
2023-01-03T11:31:53.995Z,10.95
2023-01-03T11:35:20.831Z,10.76
2023-01-03T11:37:45.043Z,10.73
2023-01-03T11:40:20.199Z,10.51
2023-01-03T11:43:04.926Z,10.60
2023-01-03T11:45:53.752Z,10.69
2023-01-03T11:48:41.708Z,10.78
2023-01-03T11:51:14.050Z,10.77
2023-01-03T11:53:56.602Z,10.78
2023-01-03T11:56:29.860Z,10.81
2023-01-03T11:59:15.931Z,10.78
2023-01-03T12:01:55.954Z,10.94
2023-01-03T12:04:27.498Z,11.07
2023-01-03T12:07:45.853Z,11.04
2023-01-03T12:10:02.547Z,10.86
2023-01-03T12:12:49.699Z,10.91
2023-01-03T12:15:23.872Z,10.69
2023-01-03T12:17:58.038Z,10.44
2023-01-03T12:20:29.079Z,10.50
2023-01-03T12:23:01.923Z,10.47
2023-01-03T12:25:32.808Z,10.51
2023-01-03T12:28:05.126Z,10.20
2023-01-03T12:30:42.833Z,10.27
2023-01-03T12:33:23.404Z,10.32
2023-01-03T12:35:57.234Z,10.14
2023-01-03T12:38:30.252Z,10.15
2023-01-03T12:41:02.401Z,10.21
2023-01-03T12:43:37.011Z,10.06
2023-01-03T12:46:13.102Z,9.86
2023-01-03T12:48:51.188Z,9.95
2023-01-03T12:51:21.220Z,10.07
2023-01-03T12:53:58.457Z,10.07
2023-01-03T12:56:41.980Z,10.39
2023-01-03T12:59:23.649Z,10.65
2023-01-03T13:01:58.993Z,10.70
2023-01-03T13:04:34.404Z,10.86
2023-01-03T13:07:07.019Z,10.98
2023-01-03T13:09:37.295Z,11.29
2023-01-03T13:12:08.518Z,11.39
2023-01-03T13:14:54.108Z,11.36
2023-01-03T13:17:25.129Z,11.32
2023-01-03T13:19:55.402Z,11.31
2023-01-03T13:22:35.120Z,11.32
2023-01-03T13:25:38.483Z,11.27
2023-01-03T13:28:29.605Z,11.41
2023-01-03T13:31:45.127Z,11.19
2023-01-03T13:34:19.255Z,11.37
2023-01-03T13:37:15.066Z,10.95
2023-01-03T13:39:48.663Z,11.01
2023-01-03T13:42:21.569Z,10.72
2023-01-03T13:44:48.985Z,10.69
2023-01-03T13:47:30.895Z,10.80
2023-01-03T13:50:00.133Z,10.78
2023-01-03T13:52:39.051Z,10.82
2023-01-03T13:55:27.295Z,10.76
2023-01-03T13:57:55.051Z,10.76
2023-01-03T14:00:23.924Z,10.68
2023-01-03T14:03:13.564Z,10.55
2023-01-03T14:06:19.844Z,10.53
2023-01-03T14:09:25.365Z,10.57
2023-01-03T14:12:26.043Z,10.73
2023-01-03T14:14:56.074Z,10.72
2023-01-03T14:17:28.209Z,10.72
2023-01-03T14:19:59.601Z,10.47
2023-01-03T14:22:38.163Z,10.36
2023-01-03T14:25:07.603Z,10.10
2023-01-03T14:27:39.251Z,9.99
2023-01-03T14:30:21.333Z,10.05
2023-01-03T14:32:48.922Z,10.09
2023-01-03T14:35:38.705Z,9.89
2023-01-03T14:38:22.081Z,9.87
2023-01-03T14:40:49.482Z,9.85
2023-01-03T14:43:21.430Z,10.12
2023-01-03T14:45:53.214Z,10.12
2023-01-03T14:48:21.503Z,10.06
2023-01-03T14:50:49.379Z,9.76
2023-01-03T14:53:18.566Z,10.30
2023-01-03T14:55:52.454Z,10.08
2023-01-03T14:58:28.749Z,10.15
2023-01-03T15:00:57.359Z,9.97
2023-01-03T15:03:26.171Z,9.97
2023-01-03T15:05:55.408Z,10.11
2023-01-03T15:08:27.678Z,10.43
2023-01-03T15:10:59.535Z,10.11
2023-01-03T15:13:31.453Z,10.21
2023-01-03T15:16:01.162Z,9.68
2023-01-03T15:18:32.893Z,9.99
2023-01-03T15:21:02.314Z,9.94
2023-01-03T15:23:38.723Z,9.85
2023-01-03T15:26:07.657Z,9.77
2023-01-03T15:28:38.543Z,9.75
2023-01-03T15:31:25.266Z,9.68
2023-01-03T15:34:12.165Z,9.55
2023-01-03T15:36:42.306Z,9.80
2023-01-03T15:39:18.470Z,9.74
2023-01-03T15:42:35.011Z,9.53
2023-01-03T15:44:51.408Z,9.48
2023-01-03T15:47:20.712Z,9.47
2023-01-03T15:49:50.997Z,9.30
2023-01-03T15:52:18.399Z,9.70
2023-01-03T15:54:47.404Z,9.64
2023-01-03T15:57:20.424Z,9.39
2023-01-03T15:59:51.866Z,9.02
2023-01-03T16:02:21.580Z,8.88
2023-01-03T16:04:50.075Z,8.80
2023-01-03T16:07:17.624Z,9.03
2023-01-03T16:09:46.993Z,8.99
2023-01-03T16:12:18.588Z,9.28
2023-01-03T16:14:49.631Z,9.10
2023-01-03T16:17:24.532Z,8.81
2023-01-03T16:19:53.176Z,8.88
2023-01-03T16:22:34.536Z,8.55
2023-01-03T16:25:05.277Z,8.32
2023-01-03T16:27:33.455Z,8.41
2023-01-03T16:30:00.761Z,8.08
2023-01-03T16:32:30.579Z,7.89
2023-01-03T16:35:00.556Z,7.79
2023-01-03T16:37:28.563Z,8.09
2023-01-03T16:39:56.112Z,7.98
2023-01-03T16:42:27.451Z,8.33
2023-01-03T16:44:55.650Z,8.11
2023-01-03T16:47:24.893Z,8.23
2023-01-03T16:49:55.773Z,7.95
2023-01-03T16:52:26.905Z,7.71
2023-01-03T16:54:55.248Z,7.45
2023-01-03T16:57:23.497Z,7.78
2023-01-03T16:59:52.203Z,7.88
2023-01-03T17:02:19.898Z,7.90
2023-01-03T17:04:47.373Z,7.76
2023-01-03T17:07:19.499Z,7.90
2023-01-03T17:09:48.934Z,8.13
2023-01-03T17:12:20.985Z,7.96
2023-01-03T17:14:49.780Z,7.70
2023-01-03T17:17:20.340Z,7.58
2023-01-03T17:20:05.549Z,7.77
2023-01-03T17:22:33.568Z,7.88
2023-01-03T17:25:00.990Z,8.16
2023-01-03T17:27:32.766Z,8.05
2023-01-03T17:30:03.068Z,7.86
2023-01-03T17:32:31.789Z,7.89
2023-01-03T17:34:59.182Z,7.79
2023-01-03T17:37:27.046Z,7.69
2023-01-03T17:39:56.889Z,7.64
2023-01-03T17:42:26.271Z,7.59
2023-01-03T17:45:11.867Z,7.64
2023-01-03T17:48:00.258Z,7.92
2023-01-03T17:50:29.834Z,8.09
2023-01-03T17:52:58.514Z,8.20
2023-01-03T17:55:29.336Z,8.25
2023-01-03T17:57:57.892Z,8.20
2023-01-03T18:00:27.026Z,8.01
2023-01-03T18:02:57.002Z,7.91
2023-01-03T18:05:28.630Z,7.91
2023-01-03T18:07:57.120Z,7.84
2023-01-03T18:10:31.066Z,7.83
2023-01-03T18:12:58.733Z,7.64
2023-01-03T18:15:26.107Z,7.53
2023-01-03T18:17:54.181Z,7.50
2023-01-03T18:20:23.001Z,7.48
2023-01-03T18:22:50.613Z,7.63
2023-01-03T18:25:22.310Z,7.47
2023-01-03T18:27:54.595Z,7.63
2023-01-03T18:30:21.956Z,7.69
2023-01-03T18:32:49.598Z,7.60
2023-01-03T18:35:26.572Z,7.78
2023-01-03T18:37:57.329Z,7.81
2023-01-03T18:40:27.901Z,7.83
2023-01-03T18:43:12.617Z,7.65
2023-01-03T18:45:41.853Z,7.76
2023-01-03T18:48:14.323Z,7.81
2023-01-03T18:50:41.707Z,7.85
2023-01-03T18:53:17.272Z,7.75
2023-01-03T18:55:44.683Z,7.78
2023-01-03T18:58:31.558Z,7.92
2023-01-03T19:00:58.943Z,7.68
2023-01-03T19:03:29.908Z,7.57
2023-01-03T19:05:59.283Z,7.49
2023-01-03T19:08:31.678Z,7.36
2023-01-03T19:11:08.191Z,7.57
2023-01-03T19:13:51.150Z,7.65
2023-01-03T19:16:20.737Z,7.42
2023-01-03T19:18:48.607Z,7.53
2023-01-03T19:21:17.232Z,7.55
2023-01-03T19:23:48.380Z,7.60
2023-01-03T19:26:26.489Z,7.51
2023-01-03T19:28:56.277Z,7.53
2023-01-03T19:31:25.033Z,7.69
2023-01-03T19:33:52.452Z,7.72
2023-01-03T19:36:22.205Z,7.57
2023-01-03T19:38:50.911Z,7.54
2023-01-03T19:41:20.159Z,7.34
2023-01-03T19:46:39.930Z,6.93
2023-01-03T19:49:15.220Z,6.80
2023-01-03T19:51:42.615Z,6.46
2023-01-03T19:54:14.954Z,6.55
2023-01-03T19:56:42.406Z,6.30
2023-01-03T19:59:23.910Z,6.17
2023-01-03T20:02:23.298Z,6.68
2023-01-03T20:04:38.799Z,6.66
2023-01-03T20:07:12.307Z,6.85
2023-01-03T20:09:41.231Z,6.85
2023-01-03T20:12:14.675Z,6.94
2023-01-03T20:14:43.197Z,6.80
2023-01-03T20:17:20.661Z,6.77
2023-01-03T20:19:48.209Z,6.81
2023-01-03T20:22:52.977Z,6.89
2023-01-03T20:25:05.977Z,7.00
2023-01-03T20:27:36.743Z,6.84
2023-01-03T20:30:14.212Z,6.79
2023-01-03T20:32:41.556Z,6.97
2023-01-03T20:35:56.463Z,6.99
2023-01-03T20:38:00.950Z,7.00
2023-01-03T20:40:29.736Z,6.96
2023-01-03T20:42:57.459Z,7.00
2023-01-03T20:45:24.892Z,7.11
2023-01-03T20:47:54.208Z,7.19
2023-01-03T20:50:23.484Z,7.03
2023-01-03T20:52:51.327Z,6.98
2023-01-03T20:55:20.561Z,7.09
2023-01-03T20:57:50.372Z,7.06
2023-01-03T21:00:24.914Z,7.21
2023-01-03T21:02:53.855Z,7.20
2023-01-03T21:05:23.375Z,7.32
2023-01-03T21:08:08.371Z,7.30
2023-01-03T21:10:39.406Z,7.35
2023-01-03T21:13:08.920Z,7.37
2023-01-03T21:15:36.533Z,7.47
2023-01-03T21:18:04.708Z,7.41
2023-01-03T21:20:33.323Z,7.52
2023-01-03T21:23:00.713Z,7.58
2023-01-03T21:25:29.899Z,7.68
2023-01-03T21:27:57.369Z,7.51
2023-01-03T21:30:27.586Z,7.50
2023-01-03T21:32:54.972Z,7.31
2023-01-03T21:35:24.916Z,7.43
2023-01-03T21:37:54.934Z,7.37
2023-01-03T21:40:24.730Z,7.26
2023-01-03T21:43:05.091Z,7.35
2023-01-03T21:45:35.990Z,7.42
2023-01-03T21:48:05.499Z,7.42
2023-01-03T21:50:33.959Z,7.20
2023-01-03T21:53:01.309Z,7.32
2023-01-03T21:55:30.712Z,7.30
2023-01-03T21:57:58.767Z,7.23
2023-01-03T22:00:26.166Z,7.16
2023-01-03T22:03:12.256Z,6.96
2023-01-03T22:05:39.674Z,6.84
2023-01-03T22:08:07.368Z,6.80
2023-01-03T22:10:36.952Z,6.69
2023-01-03T22:13:07.498Z,6.68
2023-01-03T22:15:36.716Z,6.57
2023-01-03T22:18:07.618Z,6.46
2023-01-03T22:20:38.873Z,6.42
2023-01-03T22:23:08.283Z,6.42
2023-01-03T22:25:35.685Z,6.32
2023-01-03T22:28:03.436Z,6.34
2023-01-03T22:30:31.298Z,6.20
2023-01-03T22:32:58.976Z,6.05
2023-01-03T22:35:27.757Z,6.15
2023-01-03T22:37:56.474Z,6.12
2023-01-03T22:40:24.180Z,6.25
2023-01-03T22:42:51.615Z,6.38
2023-01-03T22:45:18.996Z,6.43
2023-01-03T22:47:46.367Z,6.57
2023-01-03T22:50:13.773Z,6.50
2023-01-03T22:52:42.460Z,6.52
2023-01-03T22:55:11.616Z,6.47
2023-01-03T22:57:39.032Z,6.48
2023-01-03T23:00:10.379Z,6.43
2023-01-03T23:02:41.886Z,6.25
2023-01-03T23:05:10.028Z,6.27
2023-01-03T23:07:39.273Z,6.19
2023-01-03T23:10:10.170Z,6.05
2023-01-03T23:12:55.134Z,6.00
2023-01-03T23:15:22.490Z,5.94
2023-01-03T23:17:58.701Z,5.93
2023-01-03T23:20:28.531Z,5.86
2023-01-03T23:22:59.817Z,5.75
2023-01-03T23:25:29.051Z,5.86
2023-01-03T23:27:56.759Z,5.76
2023-01-03T23:30:24.189Z,5.72
2023-01-03T23:32:51.645Z,5.61
2023-01-03T23:35:19.042Z,5.49
2023-01-03T23:37:47.573Z,5.35
2023-01-03T23:40:15.294Z,5.29
2023-01-03T23:42:44.009Z,5.29
2023-01-03T23:45:11.695Z,5.20
2023-01-03T23:47:39.029Z,5.20
2023-01-03T23:50:06.752Z,5.31
2023-01-03T23:52:35.116Z,5.41
2023-01-03T23:55:08.497Z,5.43
2023-01-03T23:57:39.692Z,5.67
